Tiempo atmosférico en la estación meteorológica de Riaño, León (1090 m.)



Fecha
DESCASC
Temp. máxima en grados centígrados (hora)
DESCASC
Temp. mínima en grados centígrados (hora)
DESCASC
Temp. media en grados centígrados
DESCASC
Racha de viento máxima en m/sg (hora)
DESCASC
Velocidad máxima media en intervalos de 10 minutos(hora)
DESCASC
Precipitaciones diarias en mm
DESCASC
Precipitaciones de 00:00 a 06:00 en mm
DESCASC
Precipitaciones de 06:00 a 12:00 en mm
DESCASC
Precipitaciones de 12:00 a 18:00 en mm
DESCASC
Precipitaciones de 18:00 a 24:00 en mm
DESCASC
20-09-2020 19 (14:50) 7.4 (05:20) 13.2 6.94 (16:10) 4.44 (16:10) 3.8 0 0 3.6 0.2
19-09-2020 17.3 (18:40) 9.3 (08:40) 13.3 7.5 (16:20) 3.89 (16:50) 1.2 1.2 0 0 0
18-09-2020 19.8 (16:50) 11.2 (09:10) 15.5 15 (07:50) 10.83 (21:50) 8.2 0.8 6.8 0 0.6
17-09-2020 21.1 (17:30) 13.5 (00:00) 17.3 11.39 (15:50) 6.11 (14:30) 0.2 0.2 0 0 0
16-09-2020 25.7 (15:40) 8.9 (00:00) 17.3 6.11 (13:10) 3.33 (13:10) 0 0 0 0 0
15-09-2020 22.1 (16:00) 11.7 (00:00) 16.9 11.11 (02:10) 6.11 (02:10) 5.2 4.6 0.6 0 0
14-09-2020 24.6 (16:10) 11 (00:00) 17.8 10.83 (22:00) 5.83 (22:00) 11 0 0 0 11
13-09-2020 29.6 (17:10) 6.3 (00:00) 18 7.5 (16:50) 3.61 (15:30) 0 0 0 0 0
12-09-2020 27.8 (16:10) 7.7 (00:00) 17.7 5.28 (18:10) 3.33 (18:10) 0 0 0 0 0
11-09-2020 27 (16:40) 8.2 (00:00) 17.6 8.33 (18:00) 5.28 (17:50) 0 0 0 0 0
10-09-2020 25.9 (15:40) 7.9 (00:00) 16.9 9.44 (17:10) 6.11 (17:20) 0 0 0 0 0
09-09-2020 25.7 (15:30) 5.7 (00:00) 15.7 8.61 (16:50) 6.39 (16:50) 0 0 0 0 0
08-09-2020 24.5 (15:50) 5.4 (00:00) 15 6.11 (16:30) 3.33 (16:30) 0 0 0 0 0
07-09-2020 20.1 (17:10) 10.4 (07:50) 15.3 13.06 (00:10) 8.33 (00:30) 0 0 0 0 0
06-09-2020 19.6 (15:10) 10.7 (00:00) 15.2 14.72 (20:30) 10 (20:10) 0 0 0 0 0
05-09-2020 22 (14:40) 8.8 (00:00) 15.4 12.78 (16:10) 9.72 (16:50) 0 0 0 0 0
04-09-2020 28.7 (17:00) 9.4 (00:00) 19.1 6.67 (19:30) 3.33 (19:30) 0 0 0 0 0
03-09-2020 28 (18:10) 10 (00:00) 19 4.44 (19:00) 2.5 (07:50) 0 0 0 0 0
02-09-2020 24.2 (16:20) 6.7 (00:00) 15.5 7.5 (00:10) 5 (00:50) 0 0 0 0 0
01-09-2020 21.4 (14:50) 7.3 (00:00) 14.3 11.11 (19:20) 7.78 (19:30) 0 0 0 0 0
31-08-2020 19.3 (16:40) 4.5 (00:00) 11.9 4.72 (16:40) 3.06 (08:30) 0 0 0 0 0
30-08-2020 15.6 (16:20) 7.2 (00:00) 11.4 9.72 (11:50) 6.67 (17:50) 2 1 1 0 0
29-08-2020 10.9 (13:50) 7.6 (00:00) 9.2 13.89 (18:10) 6.94 (20:30) 17.8 1.2 4.8 10.8 1
28-08-2020 18.7 (15:50) 10.1 (00:00) 14.4 12.78 (17:40) 9.17 (13:20) 0 0 0 0 0
27-08-2020 29 (16:10) 14.9 (00:00) 21.9 10 (19:30) 6.39 (18:30) 0 0 0 0 0
26-08-2020 29.2 (17:30) 12.6 (00:00) 20.9 9.44 (21:00) 3.89 (20:30) 0 0 0 0 0
25-08-2020 29.3 (17:30) 9.6 (00:00) 19.4 11.11 (19:20) 6.67 (18:50) 0 0 0 0 0
24-08-2020 26.1 (18:30) 10.4 (00:00) 18.3 5.83 (00:40) 4.17 (01:00) 0 0 0 0 0
23-08-2020 24.7 (15:20) 10.8 (00:00) 17.8 10.83 (21:00) 6.67 (18:10) 0 0 0 0 0
22-08-2020 24.2 (16:10) 11.7 (00:00) 18 11.39 (20:20) 6.94 (19:00) 0 0 0 0 0

Gráficas

Temp. máximas Temp. mínimas Temp. medias Precipitaciones Rachas de viento máximas Velocidades máximas media en intervalos de 10 minutos

Datos horarios

Fecha y hora oficial Temperatura (ºC) Velocidad del viento (km/h) Dirección del viento Racha (km/h) Dirección de racha Precipitación (mm) Presión (hPa) Tendencia (hPa) Humedad (%)
2020-09-20 23:00:00 12.4 0 Calma 4 Noroeste 0 -- -- 95
2020-09-20 22:00:00 12.7 0 Calma 8 Sudoeste 0 -- -- 95
2020-09-20 21:00:00 13 2 Sur 5 Sudoeste 0 -- -- 94
2020-09-20 20:00:00 13.6 3 Sudoeste 5 Sudoeste 0 -- -- 93
2020-09-20 19:00:00 13.6 4 Sudoeste 8 Sudoeste 0.2 -- -- 92
2020-09-20 18:00:00 13.6 0 Calma 8 Norte 0.8 -- -- 92
2020-09-20 17:00:00 13.7 3 Oeste 25 Sudoeste 2.8 -- -- 91
2020-09-20 16:00:00 16.4 5 Sur 18 Norte 0 -- -- 75
2020-09-20 15:00:00 18.8 3 Norte 6 Nordeste 0 -- -- 66
2020-09-20 14:00:00 17.8 4 Nordeste 6 Nordeste 0 -- -- 72
2020-09-20 13:00:00 15.1 3 Norte 6 Nordeste 0 -- -- 76
2020-09-20 12:00:00 12.1 3 Nordeste 6 Noroeste 0 -- -- 86
2020-09-20 11:00:00 10.7 2 Norte 5 Norte 0 -- -- 92
2020-09-20 10:00:00 9.9 0 Calma 5 Este 0 -- -- 93
2020-09-20 09:00:00 8.4 0 Calma 9 Este 0 -- -- 95
2020-09-20 08:00:00 7.9 2 Este 9 Este 0 -- -- 97
2020-09-20 07:00:00 7.8 4 Este 10 Este 0 -- -- 97
2020-09-20 06:00:00 7.6 4 Sur 6 Sur 0 -- -- 96
2020-09-20 05:00:00 7.6 0 Calma 5 Este 0 -- -- 94
2020-09-20 04:00:00 7.6 0 Calma 5 Sur 0 -- -- 95
2020-09-20 03:00:00 7.9 0 Calma 4 Sudeste 0 -- -- 94
2020-09-20 02:00:00 8.5 0 Calma 4 Norte 0 -- -- 93
2020-09-20 01:00:00 9.4 0 Calma 5 Sudoeste 0 -- -- 92
2020-09-20 00:00:00 10.6 0 Calma 6 Noroeste 0 -- -- 90
2020-09-19 23:00:00 11.7 0 Calma 5 Este 0 -- -- 86
2020-09-19 22:00:00 13.2 3 Oeste 21 Nordeste 0 -- -- 78
2020-09-19 21:00:00 13.9 5 Norte 18 Norte 0 -- -- 78
2020-09-19 20:00:00 14.6 2 Noroeste 7 Noroeste 0 -- -- 80
2020-09-19 19:00:00 17 3 Norte 6 Norte 0 -- -- 70
2020-09-19 18:00:00 16.9 3 Norte 17 Norte 0 -- -- 67
2020-09-19 17:00:00 15.1 13 Nordeste 27 Nordeste 0 -- -- 79
2020-09-19 16:00:00 15.1 12 Norte 26 Nordeste 0 -- -- 76
2020-09-19 15:00:00 15 8 Noroeste 21 Norte 0 -- -- 79
2020-09-19 14:00:00 14.8 8 Norte 14 Norte 0 -- -- 82
2020-09-19 13:00:00 14 0 Calma 6 Norte 0 -- -- 85
2020-09-19 12:00:00 13.2 5 Nordeste 7 Norte 0 -- -- 89
2020-09-19 11:00:00 12 0 Calma 6 Nordeste 0 -- -- 89
2020-09-19 10:00:00 11.3 0 Calma 8 Este 0 -- -- 93
2020-09-19 09:00:00 9.6 0 Calma 5 Nordeste 0 -- -- 97
2020-09-19 08:00:00 9.7 2 Sudoeste 5 Sudoeste 0 -- -- 95
2020-09-19 07:00:00 10.2 0 Calma 7 Sur 0 -- -- 94
2020-09-19 06:00:00 10.7 3 Sudoeste 6 Sur 0 -- -- 92
2020-09-19 05:00:00 11.1 2 Sur 11 Sudeste 0 -- -- 92
2020-09-19 04:00:00 11.5 3 Sur 5 Sudoeste 0 -- -- 93
2020-09-19 03:00:00 11.6 3 Sudoeste 7 Sudoeste 0.6 -- -- 93
2020-09-19 02:00:00 11.9 0 Calma 7 Noroeste 0.6 -- -- 91
2020-09-19 01:00:00 12.3 3 Sur 18 Sudeste 0 -- -- 87
2020-09-19 00:00:00 12.6 3 Sudeste 15 Sudeste 0.4 -- -- 90
2020-09-18 23:00:00 12.9 7 Este 42 Sur 0.2 -- -- 88
2020-09-18 22:00:00 13.9 34 Sur 53 Sur 0 -- -- 80
2020-09-18 21:00:00 14.7 5 Sur 12 Sur 0 -- -- 72
2020-09-18 20:00:00 16.6 7 Sudeste 28 Sur 0 -- -- 62
2020-09-18 19:00:00 17.8 12 Sudeste 24 Sur 0 -- -- 61
2020-09-18 18:00:00 18.8 12 Sur 33 Sudeste 0 -- -- 58
2020-09-18 17:00:00 19.7 12 Sur 33 Sur 0 -- -- 56
2020-09-18 16:00:00 18.8 13 Sur 33 Sur 0 -- -- 62
2020-09-18 15:00:00 16.4 9 Sudoeste 28 Sudoeste 0 -- -- 73
2020-09-18 14:00:00 16 15 Sur 33 Sur 0 -- -- 73
2020-09-18 13:00:00 14.8 12 Sudoeste 32 Sudeste 0 -- -- 77
2020-09-18 12:00:00 14.2 6 Sur 30 Sudeste 0 -- -- 79
2020-09-18 11:00:00 14.6 3 Este 21 Sudeste 0 -- -- 83
2020-09-18 10:00:00 12.8 4 Sudeste 16 Sudeste 0.2 -- -- 91
2020-09-18 09:00:00 11.4 16 Este 31 Sudoeste 1.6 -- -- 92
2020-09-18 08:00:00 13.3 22 Sudoeste 54 Sur 5 -- -- 80
2020-09-18 07:00:00 14.8 5 Sur 19 Sur 0 -- -- 82
2020-09-18 06:00:00 14.4 2 Este 18 Sudeste 0 -- -- 84
2020-09-18 05:00:00 14.7 14 Sur 37 Sur 0 -- -- 81
2020-09-18 04:00:00 14.8 17 Sur 32 Sudeste 0 -- -- 83
2020-09-18 03:00:00 15.3 19 Sudeste 44 Sudoeste 0.2 -- -- 82
2020-09-18 02:00:00 16.9 21 Sur 47 Sudoeste 0.2 -- -- 76
2020-09-18 01:00:00 17.9 12 Sur 36 Sudeste 0.4 -- -- 73
2020-09-18 00:00:00 19.2 13 Sudeste 31 Sur 0 -- -- 67
2020-09-17 23:00:00 19.1 12 Sudeste 33 Sudeste 0 -- -- 68
2020-09-17 22:00:00 16.7 2 Sudoeste 4 Norte 0 -- -- 81
2020-09-17 21:00:00 17.2 0 Calma 8 Noroeste 0 -- -- 76
2020-09-17 20:00:00 19.6 4 Nordeste 22 Sudeste 0 -- -- 67
2020-09-17 19:00:00 20.6 9 Sur 21 Sudeste 0 -- -- 63
2020-09-17 18:00:00 20.7 12 Sur 26 Sudeste 0 -- -- 62
2020-09-17 17:00:00 20.5 10 Sudeste 30 Sudeste 0 -- -- 64
2020-09-17 16:00:00 20.9 14 Sudeste 41 Sudeste 0 -- -- 64
2020-09-17 15:00:00 19.8 17 Sur 41 Sur 0 -- -- 67
2020-09-17 14:00:00 19.9 18 Sur 37 Sudeste 0 -- -- 67
2020-09-17 13:00:00 20.4 17 Sudeste 30 Sudeste 0 -- -- 68
2020-09-17 12:00:00 19.5 3 Nordeste 6 Nordeste 0 -- -- 75
2020-09-17 11:00:00 16 2 Este 6 Nordeste 0 -- -- 88
2020-09-17 10:00:00 14.5 0 Calma 3 Sur 0 -- -- 93
2020-09-17 09:00:00 14 0 Calma 3 Este 0 -- -- 93
2020-09-17 08:00:00 14 0 Calma 4 Este 0 -- -- 92
2020-09-17 07:00:00 14.5 0 Calma 6 Noroeste 0 -- -- 92
2020-09-17 06:00:00 15.4 3 Sur 29 Este 0.2 -- -- 88
2020-09-17 05:00:00 15.2 11 Sudeste 23 Sudeste 0 -- -- 89
2020-09-17 04:00:00 13.9 4 Norte 7 Norte 0 -- -- 91
2020-09-17 03:00:00 13.6 2 Norte 6 Noroeste 0 -- -- 91
2020-09-17 02:00:00 13.5 0 Calma 5 Noroeste 0 -- -- 89
2020-09-17 01:00:00 13.9 0 Calma 4 Noroeste 0 -- -- 88
2020-09-17 00:00:00 14.5 0 Calma 6 Noroeste 0 -- -- 86
2020-09-16 23:00:00 15.4 0 Calma 6 Noroeste 0 -- -- 82
2020-09-16 22:00:00 16.3 0 Calma 4 Noroeste 0 -- -- 77
2020-09-16 21:00:00 17.7 0 Calma 4 Noroeste 0 -- -- 71
2020-09-16 20:00:00 20.2 2 Oeste 12 Sur 0 -- -- 58
2020-09-16 19:00:00 22.8 6 Sur 21 Sur 0 -- -- 49
2020-09-16 18:00:00 24.6 6 Sudoeste 18 Sur 0 -- -- 46
2020-09-16 17:00:00 24.3 6 Sudoeste 18 Sur 0 -- -- 43
2020-09-16 16:00:00 25.1 7 Sur 20 Sudoeste 0 -- -- 44
2020-09-16 15:00:00 25 5 Nordeste 19 Sudeste 0 -- -- 45
2020-09-16 14:00:00 23.2 6 Sur 22 Sudoeste 0 -- -- 51
2020-09-16 13:00:00 20.8 3 Nordeste 9 Nordeste 0 -- -- 65
2020-09-16 12:00:00 17.5 4 Nordeste 6 Nordeste 0 -- -- 78
2020-09-16 11:00:00 14.3 2 Nordeste 5 Nordeste 0 -- -- 86
2020-09-16 10:00:00 10.7 0 Calma 3 Este 0 -- -- 98
2020-09-16 09:00:00 9.6 0 Calma 5 Sudoeste 0 -- -- 99
2020-09-16 08:00:00 9.2 3 Sur 5 Sudoeste 0 -- -- 98
2020-09-16 07:00:00 9 2 Sur 4 Sur 0 -- -- 96
2020-09-16 06:00:00 9.7 0 Calma 4 Sur 0 -- -- 97
2020-09-16 05:00:00 9.9 0 Calma 2 Sur 0 -- -- 96
2020-09-16 04:00:00 10.4 0 Calma 3 Sur 0 -- -- 94
2020-09-16 03:00:00 10.8 0 Calma 2 Noroeste 0 -- -- 94
2020-09-16 02:00:00 11.4 0 Calma 3 Sudoeste 0 -- -- 93
2020-09-16 01:00:00 11.9 0 Calma 4 Noroeste 0 -- -- 92
2020-09-16 00:00:00 12.9 0 Calma 5 Noroeste 0 -- -- 89
2020-09-15 23:00:00 13.8 0 Calma 6 Noroeste 0 -- -- 86
2020-09-15 22:00:00 14.6 2 Noroeste 9 Noroeste 0 -- -- 85
2020-09-15 21:00:00 16.4 2 Norte 11 Sur 0 -- -- 77
2020-09-15 20:00:00 19.3 6 Sur 14 Sudeste 0 -- -- 70
2020-09-15 19:00:00 21.3 3 Este 14 Sudeste 0 -- -- 64
2020-09-15 18:00:00 21.9 9 Sudeste 19 Sudeste 0 -- -- 61
2020-09-15 17:00:00 21.8 9 Sur 24 Sudeste 0 -- -- 61
2020-09-15 16:00:00 22.1 8 Sudoeste 21 Sudoeste 0 -- -- 62
2020-09-15 15:00:00 20.8 6 Sudeste 23 Sur 0 -- -- 63
2020-09-15 14:00:00 20.8 9 Sur 28 Sudeste 0 -- -- 63
2020-09-15 13:00:00 21.2 15 Sudeste 31 Sudeste 0 -- -- 70
2020-09-15 12:00:00 19.1 9 Sur 16 Sur 0 -- -- 71
2020-09-15 11:00:00 16.5 3 Norte 6 Nordeste 0 -- -- 86
2020-09-15 10:00:00 13.8 0 Calma 7 Sudoeste 0 -- -- 92
2020-09-15 09:00:00 12.2 0 Calma 7 Este 0 -- -- 97
2020-09-15 08:00:00 11.7 2 Norte 8 Sudoeste 0.6 -- -- 97
2020-09-15 07:00:00 12.1 0 Calma 4 Sudoeste 0 -- -- 96
2020-09-15 06:00:00 12.7 4 Sudoeste 5 Noroeste 0.2 -- -- 95
2020-09-15 05:00:00 13.4 2 Noroeste 7 Sudoeste 0.2 -- -- 95
2020-09-15 04:00:00 13.7 5 Oeste 11 Oeste 0 -- -- 94
2020-09-15 03:00:00 14 7 Sudeste 40 Sur 3.4 -- -- 93
2020-09-15 02:00:00 13.6 16 Sudoeste 39 Sur 0.4 -- -- 93
2020-09-15 01:00:00 13.8 4 Sudoeste 13 Nordeste 0.4 -- -- 93
2020-09-15 00:00:00 14.3 5 Sur 15 Sur 0.8 -- -- 92
2020-09-14 23:00:00 14.7 4 Noroeste 33 Sudeste 3.4 -- -- 91
2020-09-14 22:00:00 16.3 21 Sur 39 Sur 5.6 -- -- 86
2020-09-14 21:00:00 -- 9 Sudoeste 15 Sur 1.2 -- -- --
2020-09-14 20:00:00 22.1 7 Sudeste 26 Sudeste 0 -- -- 51
2020-09-14 19:00:00 24.1 10 Sur 24 Sudeste 0 -- -- 46
2020-09-14 18:00:00 23.6 5 Sudeste 17 Sur 0 -- -- 49
2020-09-14 17:00:00 24.2 8 Sudoeste 29 Sudoeste 0 -- -- 46
2020-09-14 16:00:00 24.4 13 Sur 26 Sudeste 0 -- -- 45
2020-09-14 15:00:00 22.5 8 Sur 25 Sudoeste 0 -- -- 55
2020-09-14 14:00:00 22.6 12 Sur 26 Sur 0 -- -- 51
2020-09-14 13:00:00 22.9 10 Sur 26 Sur 0 -- -- 50
2020-09-14 12:00:00 22.7 9 Sur 23 Sudoeste 0 -- -- 51
2020-09-14 11:00:00 22.1 9 Sudoeste 24 Sudeste 0 -- -- 51
2020-09-14 10:00:00 17.6 3 Norte 10 Norte 0 -- -- 74
2020-09-14 09:00:00 15.5 5 Noroeste 11 Norte 0 -- -- 75
2020-09-14 08:00:00 15.1 3 Sur 10 Sudeste 0 -- -- 69
2020-09-14 07:00:00 13.6 4 Noroeste 10 Oeste 0 -- -- 81
2020-09-14 06:00:00 12.3 0 Calma 9 Noroeste 0 -- -- 86
2020-09-14 05:00:00 11.4 0 Calma 6 Sur 0 -- -- 84
2020-09-14 04:00:00 11.1 0 Calma 8 Noroeste 0 -- -- 82
2020-09-14 03:00:00 11.9 0 Calma 4 Nordeste 0 -- -- 79
2020-09-14 02:00:00 12.3 2 Norte 5 Norte 0 -- -- 80
2020-09-14 01:00:00 13.3 0 Calma 2 Norte 0 -- -- 77
2020-09-14 00:00:00 14.3 0 Calma 3 Nordeste 0 -- -- 73
2020-09-13 23:00:00 15.8 0 Calma 3 Sur 0 -- -- 67
2020-09-13 22:00:00 18.1 0 Calma 4 Noroeste 0 -- -- 61
2020-09-13 21:00:00 20.8 0 Calma 5 Noroeste 0 -- -- 54
2020-09-13 20:00:00 23.5 4 Sudoeste 13 Sudoeste 0 -- -- 46
2020-09-13 19:00:00 25.5 6 Sudoeste 20 Sudoeste 0 -- -- 36
2020-09-13 18:00:00 28.8 9 Sur 24 Sudoeste 0 -- -- 32
2020-09-13 17:00:00 29.5 9 Sudoeste 27 Sudoeste 0 -- -- 30
2020-09-13 16:00:00 29 9 Sudoeste 22 Sudoeste 0 -- -- 29
2020-09-13 15:00:00 28.3 10 Norte 15 Norte 0 -- -- 37
2020-09-13 14:00:00 25.7 6 Nordeste 9 Norte 0 -- -- 44
2020-09-13 13:00:00 22.2 4 Nordeste 8 Nordeste 0 -- -- 47
2020-09-13 12:00:00 18.3 4 Nordeste 6 Nordeste 0 -- -- 60
2020-09-13 11:00:00 14.4 3 Nordeste 6 Nordeste 0 -- -- 73
2020-09-13 10:00:00 10.9 3 Nordeste 5 Este 0 -- -- 82
2020-09-13 09:00:00 8.1 0 Calma 3 Sudeste 0 -- -- 92
2020-09-13 08:00:00 6.4 0 Calma 2 Nordeste 0 -- -- 95
2020-09-13 07:00:00 6.6 0 Calma 2 Norte 0 -- -- 93
2020-09-13 06:00:00 7.2 2 Noroeste 3 Noroeste 0 -- -- 93
2020-09-13 05:00:00 7.8 0 Calma 4 Noroeste 0 -- -- 93
2020-09-13 04:00:00 8.3 0 Calma 3 Norte 0 -- -- 89
2020-09-13 03:00:00 9.1 2 Norte 4 Noroeste 0 -- -- 86
2020-09-13 02:00:00 10.1 0 Calma 4 Norte 0 -- -- 85
2020-09-13 01:00:00 11.3 0 Calma 4 Sudoeste 0 -- -- 81
2020-09-13 00:00:00 12.7 0 Calma 3 Noroeste 0 -- -- 80
2020-09-12 23:00:00 14.2 0 Calma 5 Norte 0 -- -- 76
2020-09-12 22:00:00 16.2 2 Norte 7 Nordeste 0 -- -- 68
2020-09-12 21:00:00 18.8 0 Calma 5 Sudoeste 0 -- -- 59
2020-09-12 20:00:00 21.6 2 Noroeste 14 Noroeste 0 -- -- 46
2020-09-12 19:00:00 25.4 5 Noroeste 19 Norte 0 -- -- 38
2020-09-12 18:00:00 26.9 7 Nordeste 15 Noroeste 0 -- -- 29
2020-09-12 17:00:00 27.7 7 Norte 14 Oeste 0 -- -- 30
2020-09-12 16:00:00 27.6 9 Norte 18 Noroeste 0 -- -- 31
2020-09-12 15:00:00 27.1 9 Norte 15 Noroeste 0 -- -- 31
2020-09-12 14:00:00 26.1 6 Nordeste 8 Nordeste 0 -- -- 44
2020-09-12 13:00:00 22.6 5 Nordeste 6 Nordeste 0 -- -- 47
2020-09-12 12:00:00 18.8 3 Nordeste 6 Nordeste 0 -- -- 63
2020-09-12 11:00:00 15.1 3 Nordeste 5 Nordeste 0 -- -- 72
2020-09-12 10:00:00 11.7 2 Nordeste 5 Nordeste 0 -- -- 84
2020-09-12 09:00:00 8.8 0 Calma 4 Nordeste 0 -- -- 96
2020-09-12 08:00:00 7.7 0 Calma 4 Noroeste 0 -- -- 94
2020-09-12 07:00:00 7.9 0 Calma 4 Noroeste 0 -- -- 93
2020-09-12 06:00:00 8.3 0 Calma 3 Norte 0 -- -- 93
2020-09-12 05:00:00 9 0 Calma 3 Noroeste 0 -- -- 92
2020-09-12 04:00:00 9.6 0 Calma 6 Norte 0 -- -- 90
2020-09-12 03:00:00 10.5 0 Calma 5 Noroeste 0 -- -- 88
2020-09-12 02:00:00 11.2 0 Calma 4 Noroeste 0 -- -- 87
2020-09-12 01:00:00 12.5 0 Calma 5 Sudeste 0 -- -- 85
2020-09-12 00:00:00 13.5 0 Calma 4 Noroeste 0 -- -- 84
2020-09-11 23:00:00 14.7 0 Calma 7 Noroeste 0 -- -- 81
2020-09-11 22:00:00 16.9 3 Noroeste 12 Sur 0 -- -- 72
2020-09-11 21:00:00 18.7 6 Sur 22 Norte 0 -- -- 67
2020-09-11 20:00:00 20.8 12 Norte 26 Norte 0 -- -- 58
2020-09-11 19:00:00 23.7 13 Norte 27 Nordeste 0 -- -- 46
2020-09-11 18:00:00 25.2 18 Norte 30 Nordeste 0 -- -- 37
2020-09-11 17:00:00 26.7 6 Nordeste 17 Norte 0 -- -- 34
2020-09-11 16:00:00 26.4 4 Sudeste 10 Este 0 -- -- 28
2020-09-11 15:00:00 26.1 7 Nordeste 10 Nordeste 0 -- -- 44
2020-09-11 14:00:00 24.8 5 Norte 9 Nordeste 0 -- -- 52
2020-09-11 13:00:00 21.4 5 Nordeste 7 Nordeste 0 -- -- 57
2020-09-11 12:00:00 17.9 4 Nordeste 8 Nordeste 0 -- -- 66
2020-09-11 11:00:00 13.9 3 Nordeste 6 Nordeste 0 -- -- 81
2020-09-11 10:00:00 10.4 3 Nordeste 8 Este 0 -- -- 93
2020-09-11 09:00:00 8.6 2 Este 5 Sudeste 0 -- -- 96
2020-09-11 08:00:00 8.3 3 Sur 6 Este 0 -- -- 97
2020-09-11 07:00:00 8.4 0 Calma 3 Sudoeste 0 -- -- 96
2020-09-11 06:00:00 8.6 0 Calma 4 Este 0 -- -- 94
2020-09-11 05:00:00 8.8 0 Calma 2 Oeste 0 -- -- 94
2020-09-11 04:00:00 9.3 0 Calma 3 Norte 0 -- -- 92
2020-09-11 03:00:00 10 0 Calma 4 Sur 0 -- -- 92
2020-09-11 02:00:00 10.9 0 Calma 4 Nordeste 0 -- -- 90
2020-09-11 01:00:00 11.9 0 Calma 5 Noroeste 0 -- -- 88
2020-09-11 00:00:00 13.1 0 Calma 7 Nordeste 0 -- -- 86
2020-09-10 23:00:00 14.7 4 Norte 8 Nordeste 0 -- -- 81
2020-09-10 22:00:00 16.6 3 Sur 14 Sudeste 0 -- -- 77
2020-09-10 21:00:00 18.3 3 Sudoeste 14 Noroeste 0 -- -- 70
2020-09-10 20:00:00 19.9 9 Norte 30 Nordeste 0 -- -- 59
2020-09-10 19:00:00 22.5 13 Norte 31 Norte 0 -- -- 52
2020-09-10 18:00:00 23.5 19 Norte 34 Norte 0 -- -- 50
2020-09-10 17:00:00 24.4 21 Norte 30 Norte 0 -- -- 46
2020-09-10 16:00:00 25.9 12 Norte 22 Norte 0 -- -- 39
2020-09-10 15:00:00 24.9 6 Norte 13 Norte 0 -- -- 43
2020-09-10 14:00:00 24.4 4 Nordeste 8 Norte 0 -- -- 48
2020-09-10 13:00:00 21.7 5 Nordeste 8 Norte 0 -- -- 55
2020-09-10 12:00:00 17.4 5 Nordeste 7 Nordeste 0 -- -- 62
2020-09-10 11:00:00 13.7 4 Nordeste 6 Nordeste 0 -- -- 79
2020-09-10 10:00:00 10.6 3 Nordeste 8 Norte 0 -- -- 87
2020-09-10 09:00:00 8.4 3 Nordeste 8 Nordeste 0 -- -- 96
2020-09-10 08:00:00 7.9 2 Sur 7 Nordeste 0 -- -- 96
2020-09-10 07:00:00 8.3 0 Calma 4 Sur 0 -- -- 95
2020-09-10 06:00:00 8.2 0 Calma 3 Nordeste 0 -- -- 93
2020-09-10 05:00:00 8.3 0 Calma 6 Noroeste 0 -- -- 95
2020-09-10 04:00:00 9 0 Calma 3 Noroeste 0 -- -- 93
2020-09-10 03:00:00 9.7 0 Calma 8 Noroeste 0 -- -- 91
2020-09-10 02:00:00 10.8 4 Noroeste 10 Noroeste 0 -- -- 90
2020-09-10 01:00:00 12.6 0 Calma 6 Sur 0 -- -- 89
2020-09-10 00:00:00 13.6 0 Calma 7 Noroeste 0 -- -- 85
2020-09-09 23:00:00 15.1 3 Este 13 Nordeste 0 -- -- 80
2020-09-09 22:00:00 16.2 4 Sudeste 17 Nordeste 0 -- -- 77
2020-09-09 21:00:00 17.9 6 Norte 24 Nordeste 0 -- -- 70
2020-09-09 20:00:00 19.2 12 Norte 27 Norte 0 -- -- 63
2020-09-09 19:00:00 21.9 14 Norte 31 Norte 0 -- -- 51
2020-09-09 18:00:00 23.3 18 Norte 29 Norte 0 -- -- 46
2020-09-09 17:00:00 23.7 22 Norte 31 Norte 0 -- -- 45
2020-09-09 16:00:00 25.4 15 Norte 24 Norte 0 -- -- 39
2020-09-09 15:00:00 25.2 10 Norte 16 Norte 0 -- -- 36
2020-09-09 14:00:00 23.7 8 Norte 10 Norte 0 -- -- 40
2020-09-09 13:00:00 20.5 4 Nordeste 7 Norte 0 -- -- 51
2020-09-09 12:00:00 17.2 5 Nordeste 7 Nordeste 0 -- -- 58
2020-09-09 11:00:00 12.6 2 Norte 6 Nordeste 0 -- -- 74
2020-09-09 10:00:00 8.9 2 Norte 7 Este 0 -- -- 90
2020-09-09 09:00:00 6.3 0 Calma 4 Sudoeste 0 -- -- 97
2020-09-09 08:00:00 5.7 2 Sudoeste 6 Sudoeste 0 -- -- 95
2020-09-09 07:00:00 6.3 0 Calma 3 Sur 0 -- -- 91
2020-09-09 06:00:00 6.4 0 Calma 2 Nordeste 0 -- -- 90
2020-09-09 05:00:00 6.3 0 Calma 3 Norte 0 -- -- 90
2020-09-09 04:00:00 6.8 0 Calma 6 Nordeste 0 -- -- 89
2020-09-09 03:00:00 7.6 0 Calma 4 Este 0 -- -- 86
2020-09-09 02:00:00 8.5 0 Calma 3 Sudeste 0 -- -- 84
2020-09-09 01:00:00 9.4 0 Calma 9 Noroeste 0 -- -- 82
2020-09-09 00:00:00 10.6 2 Nordeste 5 Norte 0 -- -- 80
2020-09-08 23:00:00 12.2 0 Calma 4 Norte 0 -- -- 76
2020-09-08 22:00:00 14 0 Calma 5 Sudeste 0 -- -- 68
2020-09-08 21:00:00 16.4 2 Este 9 Sudoeste 0 -- -- 59
2020-09-08 20:00:00 19.4 4 Sudoeste 11 Sur 0 -- -- 49
2020-09-08 19:00:00 24 4 Sur 11 Este 0 -- -- 42
2020-09-08 18:00:00 24.3 6 Norte 15 Sudeste 0 -- -- 40
2020-09-08 17:00:00 24 9 Sur 22 Sudoeste 0 -- -- 38
2020-09-08 16:00:00 24.4 7 Norte 13 Norte 0 -- -- 33
2020-09-08 15:00:00 23.7 8 Norte 12 Norte 0 -- -- 38
2020-09-08 14:00:00 22.2 6 Norte 14 Norte 0 -- -- 38
2020-09-08 13:00:00 19.3 9 Norte 11 Norte 0 -- -- 45
2020-09-08 12:00:00 15.9 5 Nordeste 8 Nordeste 0 -- -- 60
2020-09-08 11:00:00 10.9 3 Nordeste 5 Este 0 -- -- 85
2020-09-08 10:00:00 7 2 Noroeste 6 Este 0 -- -- 95
2020-09-08 09:00:00 5.8 3 Este 9 Nordeste 0 -- -- 97
2020-09-08 08:00:00 5.8 2 Sudeste 9 Este 0 -- -- 97
2020-09-08 07:00:00 5.8 3 Nordeste 10 Este 0 -- -- 97
2020-09-08 06:00:00 5.5 2 Este 8 Este 0 -- -- 96
2020-09-08 05:00:00 5.4 0 Calma 4 Norte 0 -- -- 95
2020-09-08 04:00:00 5.6 0 Calma 4 Sur 0 -- -- 92
2020-09-08 03:00:00 6.8 0 Calma 8 Norte 0 -- -- 93
2020-09-08 02:00:00 7.9 3 Norte 12 Este 0 -- -- 92
2020-09-08 01:00:00 9.4 4 Nordeste 17 Este 0 -- -- 88
2020-09-08 00:00:00 10.8 6 Este 25 Nordeste 0 -- -- 89
2020-09-07 23:00:00 12.5 20 Nordeste 33 Norte 0 -- -- 83
2020-09-07 22:00:00 13.2 17 Norte 40 Norte 0 -- -- 79
2020-09-07 21:00:00 14.1 26 Norte 37 Norte 0 -- -- 77
2020-09-07 20:00:00 15.3 17 Norte 32 Nordeste 0 -- -- 69
2020-09-07 19:00:00 18.4 8 Norte 31 Norte 0 -- -- 58
2020-09-07 18:00:00 19.5 11 Norte 32 Nordeste 0 -- -- 51
2020-09-07 17:00:00 20 13 Norte 28 Noroeste 0 -- -- 52
2020-09-07 16:00:00 18.7 18 Noroeste 31 Noroeste 0 -- -- 53
2020-09-07 15:00:00 19.4 13 Norte 30 Noroeste 0 -- -- 53
2020-09-07 14:00:00 18.7 8 Norte 19 Norte 0 -- -- 54
2020-09-07 13:00:00 18.2 9 Norte 21 Norte 0 -- -- 57
2020-09-07 12:00:00 16.4 12 Norte 19 Norte 0 -- -- 61
2020-09-07 11:00:00 13.3 10 Norte 26 Nordeste 0 -- -- 68
2020-09-07 10:00:00 12.2 12 Norte 27 Norte 0 -- -- 70
2020-09-07 09:00:00 11.5 14 Norte 27 Noroeste 0 -- -- 72
2020-09-07 08:00:00 10.5 16 Noroeste 28 Noroeste 0 -- -- 79
2020-09-07 07:00:00 10.7 14 Noroeste 29 Noroeste 0 -- -- 80
2020-09-07 06:00:00 10.9 16 Noroeste 31 Noroeste 0 -- -- 80
2020-09-07 05:00:00 10.9 14 Norte 39 Noroeste 0 -- -- 79
2020-09-07 04:00:00 10.6 22 Noroeste 43 Noroeste 0 -- -- 82
2020-09-07 03:00:00 10.6 20 Noroeste 38 Norte 0 -- -- 80
2020-09-07 02:00:00 10.6 25 Norte 39 Norte 0 -- -- 78
2020-09-07 01:00:00 10.7 23 Norte 47 Norte 0 -- -- 78
2020-09-07 00:00:00 10.7 27 Norte 45 Noroeste 0 -- -- 80
2020-09-06 23:00:00 10.9 18 Norte 36 Noroeste 0 -- -- 76
2020-09-06 22:00:00 11.3 19 Noroeste 39 Norte 0 -- -- 77
2020-09-06 21:00:00 11.8 27 Noroeste 53 Nordeste 0 -- -- 76
2020-09-06 20:00:00 13.4 33 Norte 47 Norte 0 -- -- 77
2020-09-06 19:00:00 15.6 31 Norte 45 Norte 0 -- -- 71
2020-09-06 18:00:00 17 33 Norte 48 Norte 0 -- -- 70
2020-09-06 17:00:00 18.1 32 Norte 45 Norte 0 -- -- 66
2020-09-06 16:00:00 19.1 32 Norte 45 Norte 0 -- -- 62
2020-09-06 15:00:00 19.5 28 Norte 36 Norte 0 -- -- 61
2020-09-06 14:00:00 19.1 28 Norte 37 Norte 0 -- -- 65
2020-09-06 13:00:00 18.7 22 Norte 33 Norte 0 -- -- 66
2020-09-06 12:00:00 17 28 Norte 39 Norte 0 -- -- 72
2020-09-06 11:00:00 15.7 23 Norte 36 Norte 0 -- -- 77
2020-09-06 10:00:00 14.4 18 Nordeste 36 Norte 0 -- -- 80
2020-09-06 09:00:00 13 25 Norte 37 Norte 0 -- -- 86
2020-09-06 08:00:00 12 15 Nordeste 28 Nordeste 0 -- -- 90
2020-09-06 07:00:00 12.5 19 Nordeste 27 Norte 0 -- -- 91
2020-09-06 06:00:00 12.8 15 Norte 31 Nordeste 0 -- -- 89
2020-09-06 05:00:00 13.1 15 Norte 35 Norte 0 -- -- 85
2020-09-06 04:00:00 13.4 21 Norte 41 Norte 0 -- -- 84
2020-09-06 03:00:00 13.5 18 Norte 39 Norte 0 -- -- 85
2020-09-06 02:00:00 13.6 15 Norte 42 Norte 0 -- -- 84
2020-09-06 01:00:00 14 17 Norte 43 Norte 0 -- -- 83
2020-09-06 00:00:00 14.4 15 Norte 42 Nordeste 0 -- -- 82
2020-09-05 23:00:00 14.6 15 Norte 35 Norte 0 -- -- 82
2020-09-05 22:00:00 14.9 12 Noroeste 39 Noroeste 0 -- -- 81
2020-09-05 21:00:00 15.2 14 Norte 40 Norte 0 -- -- 81
2020-09-05 20:00:00 16.2 28 Norte 44 Norte 0 -- -- 82
2020-09-05 19:00:00 18.2 26 Norte 44 Norte 0 -- -- 76
2020-09-05 18:00:00 19.4 30 Norte 43 Norte 0 -- -- 72
2020-09-05 17:00:00 20.1 33 Norte 46 Norte 0 -- -- 71
2020-09-05 16:00:00 21.1 32 Norte 44 Norte 0 -- -- 67
2020-09-05 15:00:00 21.9 30 Norte 38 Norte 0 -- -- 66
2020-09-05 14:00:00 21.8 25 Norte 37 Norte 0 -- -- 67
2020-09-05 13:00:00 21.4 23 Norte 30 Norte 0 -- -- 68
2020-09-05 12:00:00 20 21 Norte 27 Norte 0 -- -- 70
2020-09-05 11:00:00 18.5 12 Norte 18 Norte 0 -- -- 73
2020-09-05 10:00:00 15.4 5 Este 12 Nordeste 0 -- -- 84
2020-09-05 09:00:00 10.6 0 Calma 7 Noroeste 0 -- -- 96
2020-09-05 08:00:00 9 0 Calma 6 Nordeste 0 -- -- 93
2020-09-05 07:00:00 9.1 3 Noroeste 9 Nordeste 0 -- -- 93
2020-09-05 06:00:00 9.6 0 Calma 3 Norte 0 -- -- 93
2020-09-05 05:00:00 10.1 0 Calma 4 Noroeste 0 -- -- 92
2020-09-05 04:00:00 10.8 0 Calma 6 Noroeste 0 -- -- 90
2020-09-05 03:00:00 11.6 2 Sudoeste 5 Noroeste 0 -- -- 85
2020-09-05 02:00:00 12.2 0 Calma 6 Norte 0 -- -- 85
2020-09-05 01:00:00 13.2 3 Norte 9 Noroeste 0 -- -- 82
2020-09-05 00:00:00 14.8 0 Calma 7 Noroeste 0 -- -- 77
2020-09-04 23:00:00 16.7 3 Norte 9 Sudeste 0 -- -- 70
2020-09-04 22:00:00 19.1 3 Sudeste 11 Este 0 -- -- 62
2020-09-04 21:00:00 21 4 Norte 17 Norte 0 -- -- 53
2020-09-04 20:00:00 23.5 5 Norte 24 Noroeste 0 -- -- 42
2020-09-04 19:00:00 27.3 6 Oeste 14 Oeste 0 -- -- 33
2020-09-04 18:00:00 28.3 4 Sudoeste 18 Sur 0 -- -- 31
2020-09-04 17:00:00 28.7 6 Sur 19 Sudoeste 0 -- -- 31
2020-09-04 16:00:00 28 8 Sudoeste 21 Sudoeste 0 -- -- 30
2020-09-04 15:00:00 27.3 5 Oeste 12 Noroeste 0 -- -- 37
2020-09-04 14:00:00 25.8 6 Nordeste 9 Norte 0 -- -- 44
2020-09-04 13:00:00 22.8 4 Nordeste 6 Norte 0 -- -- 55
2020-09-04 12:00:00 19.2 4 Nordeste 7 Nordeste 0 -- -- 68
2020-09-04 11:00:00 15.3 4 Nordeste 8 Nordeste 0 -- -- 75
2020-09-04 10:00:00 11.9 3 Este 10 Este 0 -- -- 89
2020-09-04 09:00:00 10.2 0 Calma 6 Sur 0 -- -- 97
2020-09-04 08:00:00 9.9 2 Sudoeste 5 Oeste 0 -- -- 97
2020-09-04 07:00:00 10 0 Calma 3 Este 0 -- -- 97
2020-09-04 06:00:00 9.7 2 Sudoeste 3 Sudoeste 0 -- -- 97
2020-09-04 05:00:00 9.6 0 Calma 6 Noroeste 0 -- -- 93
2020-09-04 04:00:00 10.3 0 Calma 4 Noroeste 0 -- -- 92
2020-09-04 03:00:00 11.1 0 Calma 5 Norte 0 -- -- 90
2020-09-04 02:00:00 11.9 0 Calma 5 Norte 0 -- -- 89
2020-09-04 01:00:00 12.9 0 Calma 4 Norte 0 -- -- 88
2020-09-04 00:00:00 14.1 0 Calma 5 Noroeste 0 -- -- 85
2020-09-03 23:00:00 15.5 2 Norte 6 Nordeste 0 -- -- 81
2020-09-03 22:00:00 17.4 2 Noroeste 8 Norte 0 -- -- 74
2020-09-03 21:00:00 20.2 4 Nordeste 10 Noroeste 0 -- -- 65
2020-09-03 20:00:00 22.2 5 Noroeste 13 Oeste 0 -- -- 58
2020-09-03 19:00:00 26.1 9 Noroeste 16 Noroeste 0 -- -- 45
2020-09-03 18:00:00 27.7 3 Norte 10 Norte 0 -- -- 39
2020-09-03 17:00:00 27 8 Norte 12 Norte 0 -- -- 38
2020-09-03 16:00:00 26.9 7 Nordeste 10 Nordeste 0 -- -- 38
2020-09-03 15:00:00 25.9 4 Nordeste 5 Nordeste 0 -- -- 53
2020-09-03 14:00:00 23.8 3 Nordeste 8 Norte 0 -- -- 58
2020-09-03 13:00:00 21.1 6 Nordeste 8 Nordeste 0 -- -- 67
2020-09-03 12:00:00 16.9 4 Nordeste 12 Norte 0 -- -- 76
2020-09-03 11:00:00 12.9 2 Este 6 Nordeste 0 -- -- 92
2020-09-03 10:00:00 10.7 3 Este 10 Este 0 -- -- 97
2020-09-03 09:00:00 10.1 7 Este 11 Este 0 -- -- 98
2020-09-03 08:00:00 10 6 Este 12 Este 0 -- -- 97
2020-09-03 07:00:00 10.4 5 Este 11 Este 0 -- -- 97
2020-09-03 06:00:00 10.6 7 Este 10 Este 0 -- -- 96
2020-09-03 05:00:00 11.5 0 Calma 5 Sudeste 0 -- -- 94
2020-09-03 04:00:00 11.8 3 Este 6 Este 0 -- -- 94
2020-09-03 03:00:00 11.7 2 Sudoeste 3 Este 0 -- -- 94
2020-09-03 02:00:00 11.6 0 Calma 6 Nordeste 0 -- -- 93
2020-09-03 01:00:00 12.3 3 Nordeste 5 Este 0 -- -- 91
2020-09-03 00:00:00 13.3 0 Calma 4 Nordeste 0 -- -- 90
2020-09-02 23:00:00 14.5 0 Calma 5 Este 0 -- -- 86
2020-09-02 22:00:00 16.2 2 Noroeste 23 Sudoeste 0 -- -- 83
2020-09-02 21:00:00 17.8 4 Sudoeste 24 Nordeste 0 -- -- 77
2020-09-02 20:00:00 19 11 Norte 25 Norte 0 -- -- 70
2020-09-02 19:00:00 21.9 13 Norte 23 Noroeste 0 -- -- 58
2020-09-02 18:00:00 23.6 12 Norte 17 Nordeste 0 -- -- 51
2020-09-02 17:00:00 24.1 7 Norte 13 Norte 0 -- -- 45
2020-09-02 16:00:00 24 6 Nordeste 13 Norte 0 -- -- 46
2020-09-02 15:00:00 23.2 8 Norte 13 Norte 0 -- -- 49
2020-09-02 14:00:00 22.2 8 Norte 12 Norte 0 -- -- 50
2020-09-02 13:00:00 20.1 6 Nordeste 12 Norte 0 -- -- 59
2020-09-02 12:00:00 17.1 4 Nordeste 6 Nordeste 0 -- -- 68
2020-09-02 11:00:00 13.6 3 Nordeste 6 Norte 0 -- -- 76
2020-09-02 10:00:00 10.5 2 Nordeste 9 Este 0 -- -- 90
2020-09-02 09:00:00 7.7 2 Este 6 Este 0 -- -- 95
2020-09-02 08:00:00 6.7 3 Este 8 Nordeste 0 -- -- 95
2020-09-02 07:00:00 7.4 0 Calma 9 Este 0 -- -- 95
2020-09-02 06:00:00 7.6 0 Calma 8 Este 0 -- -- 95
2020-09-02 05:00:00 7.9 4 Este 10 Este 0 -- -- 94
2020-09-02 04:00:00 9 2 Sur 9 Este 0 -- -- 90
2020-09-02 03:00:00 10.1 5 Este 17 Este 0 -- -- 87
2020-09-02 02:00:00 10.7 5 Nordeste 21 Nordeste 0 -- -- 87
2020-09-02 01:00:00 11.8 17 Norte 27 Nordeste 0 -- -- 86
2020-09-02 00:00:00 12.1 4 Norte 22 Nordeste 0 -- -- 79
2020-09-01 23:00:00 12.4 9 Norte 28 Nordeste 0 -- -- 78
2020-09-01 22:00:00 13 16 Norte 33 Norte 0 -- -- 78
2020-09-01 21:00:00 13.6 18 Norte 40 Norte 0 -- -- 81
2020-09-01 20:00:00 15 22 Norte 40 Norte 0 -- -- 75
2020-09-01 19:00:00 18 24 Norte 39 Norte 0 -- -- 64
2020-09-01 18:00:00 19.6 22 Norte 34 Norte 0 -- -- 57
2020-09-01 17:00:00 20.6 23 Norte 32 Norte 0 -- -- 51
2020-09-01 16:00:00 20.5 24 Norte 32 Norte 0 -- -- 49
2020-09-01 15:00:00 21.4 17 Norte 23 Norte 0 -- -- 46
2020-09-01 14:00:00 21 15 Norte 21 Norte 0 -- -- 49
2020-09-01 13:00:00 20 4 Este 8 Norte 0 -- -- 53
2020-09-01 12:00:00 17.6 4 Nordeste 9 Norte 0 -- -- 65
2020-09-01 11:00:00 14.8 3 Nordeste 8 Nordeste 0 -- -- 76
2020-09-01 10:00:00 11.2 2 Este 6 Este 0 -- -- 87
2020-09-01 09:00:00 8.7 0 Calma 8 Este 0 -- -- 96
2020-09-01 08:00:00 7.3 0 Calma 4 Sudeste 0 -- -- 96
2020-09-01 07:00:00 7.4 0 Calma 3 Sudoeste 0 -- -- 94
2020-09-01 06:00:00 7.9 0 Calma 5 Sur 0 -- -- 93
2020-09-01 05:00:00 8.1 0 Calma 3 Noroeste 0 -- -- 93
2020-09-01 04:00:00 8.4 0 Calma 4 Sudeste 0 -- -- 93
2020-09-01 03:00:00 8.8 0 Calma 4 Nordeste 0 -- -- 93
2020-09-01 02:00:00 9.3 2 Sudoeste 8 Norte 0 -- -- 91
2020-09-01 01:00:00 9.7 0 Calma 5 Sudoeste 0 -- -- 89
2020-09-01 00:00:00 10.7 2 Nordeste 5 Este 0 -- -- 87
2020-08-31 23:00:00 12 0 Calma 5 Norte 0 -- -- 82
2020-08-31 22:00:00 12.6 0 Calma 3 Sudeste 0 -- -- 81
2020-08-31 21:00:00 13.5 0 Calma 8 Oeste 0 -- -- 70
2020-08-31 20:00:00 15.5 6 Sudoeste 10 Oeste 0 -- -- 63
2020-08-31 19:00:00 17.3 5 Oeste 8 Oeste 0 -- -- 54
2020-08-31 18:00:00 16.6 6 Oeste 13 Oeste 0 -- -- 58
2020-08-31 17:00:00 19 4 Noroeste 17 Norte 0 -- -- 47
2020-08-31 16:00:00 18.9 6 Norte 11 Norte 0 -- -- 49
2020-08-31 15:00:00 17.9 6 Norte 13 Este 0 -- -- 54
2020-08-31 14:00:00 17.9 5 Nordeste 12 Norte 0 -- -- 59
2020-08-31 13:00:00 16 7 Nordeste 11 Norte 0 -- -- 69
2020-08-31 12:00:00 13.1 5 Nordeste 9 Norte 0 -- -- 76
2020-08-31 11:00:00 9.6 3 Este 8 Este 0 -- -- 84
2020-08-31 10:00:00 5.8 3 Este 15 Este 0 -- -- 96
2020-08-31 09:00:00 4.8 7 Sudeste 17 Este 0 -- -- 99
2020-08-31 08:00:00 4.7 7 Este 14 Este 0 -- -- 98
2020-08-31 07:00:00 4.7 8 Este 11 Este 0 -- -- 97
2020-08-31 06:00:00 4.6 6 Este 16 Este 0 -- -- 96
2020-08-31 05:00:00 5.4 5 Este 12 Este 0 -- -- 95
2020-08-31 04:00:00 6 5 Sudeste 12 Este 0 -- -- 96
2020-08-31 03:00:00 6 7 Este 12 Este 0 -- -- 93
2020-08-31 02:00:00 6.4 4 Sudeste 9 Este 0 -- -- 94
2020-08-31 01:00:00 6.6 6 Este 12 Este 0 -- -- 94
2020-08-31 00:00:00 7.2 3 Sudeste 12 Sudeste 0 -- -- 91
2020-08-30 23:00:00 8.1 5 Este 19 Nordeste 0 -- -- 89
2020-08-30 22:00:00 8.6 13 Norte 22 Norte 0 -- -- 89
2020-08-30 21:00:00 10.2 16 Norte 27 Norte 0 -- -- 81
2020-08-30 20:00:00 11.1 17 Norte 31 Nordeste 0 -- -- 75
2020-08-30 19:00:00 13.5 21 Norte 31 Norte 0 -- -- 67
2020-08-30 18:00:00 14.3 22 Norte 31 Norte 0 -- -- 66
2020-08-30 17:00:00 15 19 Norte 30 Norte 0 -- -- 64
2020-08-30 16:00:00 15 14 Norte 32 Norte 0 -- -- 61
2020-08-30 15:00:00 12.9 12 Norte 34 Norte 0 -- -- 67
2020-08-30 14:00:00 13.3 8 Norte 25 Noroeste 0 -- -- 60
2020-08-30 13:00:00 12.4 6 Norte 28 Noroeste 0 -- -- 66
2020-08-30 12:00:00 11 13 Norte 35 Nordeste 0 -- -- 71
2020-08-30 11:00:00 11 18 Norte 26 Norte 0 -- -- 77
2020-08-30 10:00:00 9 14 Norte 23 Norte 0.2 -- -- 90
2020-08-30 09:00:00 7.5 17 Norte 27 Norte 0.4 -- -- 95
2020-08-30 08:00:00 7.5 10 Norte 21 Norte 0.4 -- -- 95
2020-08-30 07:00:00 7.7 12 Norte 24 Norte 0 -- -- 95
2020-08-30 06:00:00 7.7 10 Norte 26 Norte 0.6 -- -- 95
2020-08-30 05:00:00 7.8 11 Norte 24 Norte 0.2 -- -- 94
2020-08-30 04:00:00 7.7 6 Norte 25 Nordeste 0.2 -- -- 92
2020-08-30 03:00:00 7.7 13 Norte 30 Norte 0 -- -- 93
2020-08-30 02:00:00 7.9 11 Norte 31 Norte 0 -- -- 86
2020-08-30 01:00:00 7.9 12 Norte 31 Norte 0 -- -- 88
2020-08-30 00:00:00 7.7 16 Norte 32 Norte 0 -- -- 92
2020-08-29 23:00:00 7.8 17 Norte 32 Norte 0.2 -- -- 90
2020-08-29 22:00:00 8 15 Norte 39 Norte 0 -- -- 93
2020-08-29 21:00:00 8 11 Norte 43 Nordeste 0.2 -- -- 88
2020-08-29 20:00:00 8.5 16 Norte 39 Nordeste 0.2 -- -- 88
2020-08-29 19:00:00 8.9 18 Norte 50 Noroeste 0.4 -- -- 87
2020-08-29 18:00:00 9.5 5 Noroeste 20 Nordeste 3.8 -- -- 91
2020-08-29 17:00:00 9.7 11 Noroeste 29 Norte 2.2 -- -- 89
2020-08-29 16:00:00 10.1 9 Noroeste 34 Norte 1 -- -- 88
2020-08-29 15:00:00 10.3 2 Sudoeste 30 Nordeste 2.8 -- -- 89
2020-08-29 14:00:00 10.6 8 Norte 28 Norte 0.2 -- -- 88
2020-08-29 13:00:00 9.9 2 Sudoeste 15 Nordeste 0.8 -- -- 89
2020-08-29 12:00:00 9.2 6 Noroeste 19 Norte 1.4 -- -- 88
2020-08-29 11:00:00 9.8 3 Noroeste 15 Noroeste 1.2 -- -- 90
2020-08-29 10:00:00 9.2 4 Noroeste 20 Norte 0.8 -- -- 90
2020-08-29 09:00:00 8.6 11 Norte 21 Noroeste 0.6 -- -- 95
2020-08-29 08:00:00 8.3 5 Noroeste 17 Noroeste 0.2 -- -- 88
2020-08-29 07:00:00 8.5 9 Noroeste 24 Noroeste 0.6 -- -- 87
2020-08-29 06:00:00 8.8 3 Oeste 18 Nordeste 0.8 -- -- 91
2020-08-29 05:00:00 8.9 4 Oeste 14 Oeste 0.2 -- -- 89
2020-08-29 04:00:00 9.3 6 Noroeste 18 Noroeste 0.2 -- -- 85
2020-08-29 03:00:00 9.9 6 Noroeste 23 Norte 0 -- -- 75
2020-08-29 02:00:00 9.9 12 Norte 22 Noroeste 0 -- -- 75
2020-08-29 01:00:00 9.5 9 Noroeste 38 Norte 0 -- -- 71
2020-08-29 00:00:00 10.1 13 Norte 40 Nordeste 0 -- -- 78
2020-08-28 23:00:00 10.8 14 Noroeste 33 Norte 0 -- -- 72
2020-08-28 22:00:00 11.5 16 Norte 36 Nordeste 0 -- -- 80
2020-08-28 21:00:00 12.2 23 Norte 37 Norte 0 -- -- 76
2020-08-28 20:00:00 13.4 14 Norte 43 Norte 0 -- -- 70
2020-08-28 19:00:00 15.8 14 Norte 45 Noroeste 0 -- -- 58
2020-08-28 18:00:00 16.8 20 Noroeste 46 Norte 0 -- -- 50
2020-08-28 17:00:00 17.9 18 Noroeste 42 Norte 0 -- -- 51
2020-08-28 16:00:00 18.6 16 Norte 42 Nordeste 0 -- -- 49
2020-08-28 15:00:00 17.8 17 Norte 44 Norte 0 -- -- 50
2020-08-28 14:00:00 17.3 29 Norte 42 Norte 0 -- -- 67
2020-08-28 13:00:00 16.3 31 Norte 41 Norte 0 -- -- 72
2020-08-28 12:00:00 16.2 30 Norte 41 Norte 0 -- -- 72
2020-08-28 11:00:00 14.3 28 Norte 38 Norte 0 -- -- 80
2020-08-28 10:00:00 14.3 22 Norte 33 Norte 0 -- -- 84
2020-08-28 09:00:00 14.1 22 Norte 39 Norte 0 -- -- 88
2020-08-28 08:00:00 14.4 17 Norte 29 Norte 0 -- -- 90
2020-08-28 07:00:00 14.7 17 Norte 25 Norte 0 -- -- 91
2020-08-28 06:00:00 15 9 Norte 24 Norte 0 -- -- 90
2020-08-28 05:00:00 15.5 5 Este 14 Este 0 -- -- 91
2020-08-28 04:00:00 16.3 3 Este 13 Este 0 -- -- 89
2020-08-28 03:00:00 16.2 2 Sudoeste 9 Sudoeste 0 -- -- 90
2020-08-28 02:00:00 16.5 2 Oeste 21 Nordeste 0 -- -- 88
2020-08-28 01:00:00 17.5 8 Norte 23 Norte 0 -- -- 87
2020-08-28 00:00:00 18.2 12 Norte 28 Nordeste 0 -- -- 85
2020-08-27 23:00:00 18.4 9 Norte 28 Norte 0 -- -- 87
2020-08-27 22:00:00 19 9 Norte 30 Norte 0 -- -- 85
2020-08-27 21:00:00 19.9 15 Norte 30 Norte 0 -- -- 82
2020-08-27 20:00:00 21.2 17 Norte 36 Norte 0 -- -- 79
2020-08-27 19:00:00 21.9 19 Norte 33 Norte 0 -- -- 76
2020-08-27 18:00:00 23.8 23 Norte 31 Norte 0 -- -- 68
2020-08-27 17:00:00 26.7 8 Sudoeste 17 Sur 0 -- -- 48
2020-08-27 16:00:00 28.6 7 Sur 24 Sudeste 0 -- -- 46
2020-08-27 15:00:00 28.5 8 Nordeste 13 Nordeste 0 -- -- 51
2020-08-27 14:00:00 27.3 6 Nordeste 8 Norte 0 -- -- 50
2020-08-27 13:00:00 25.2 4 Nordeste 10 Norte 0 -- -- 54
2020-08-27 12:00:00 21.2 3 Nordeste 14 Norte 0 -- -- 75
2020-08-27 11:00:00 17.4 2 Sur 6 Norte 0 -- -- 90
2020-08-27 10:00:00 16 0 Calma 7 Este 0 -- -- 91
2020-08-27 09:00:00 15.2 4 Nordeste 11 Este 0 -- -- 92
2020-08-27 08:00:00 14.9 2 Este 12 Este 0 -- -- 93
2020-08-27 07:00:00 15.2 7 Este 11 Este 0 -- -- 92
2020-08-27 06:00:00 15.4 4 Sudeste 10 Este 0 -- -- 92
2020-08-27 05:00:00 15.6 6 Este 11 Este 0 -- -- 92
2020-08-27 04:00:00 15.9 5 Este 9 Este 0 -- -- 92
2020-08-27 03:00:00 16.3 4 Este 9 Nordeste 0 -- -- 91
2020-08-27 02:00:00 16.8 0 Calma 5 Norte 0 -- -- 91
2020-08-27 01:00:00 16.9 0 Calma 9 Nordeste 0 -- -- 90
2020-08-27 00:00:00 18.1 0 Calma 13 Nordeste 0 -- -- 89
2020-08-26 23:00:00 19 8 Nordeste 15 Nordeste 0 -- -- 88
2020-08-26 22:00:00 19.8 5 Sur 31 Nordeste 0 -- -- 84
2020-08-26 21:00:00 20.6 13 Norte 34 Norte 0 -- -- 81
2020-08-26 20:00:00 24.4 6 Norte 19 Nordeste 0 -- -- 65
2020-08-26 19:00:00 27.5 5 Oeste 13 Sudeste 0 -- -- 47
2020-08-26 18:00:00 28.9 4 Sudoeste 14 Sudoeste 0 -- -- 41
2020-08-26 17:00:00 28.9 5 Nordeste 12 Sudeste 0 -- -- 41
2020-08-26 16:00:00 29.1 6 Nordeste 12 Nordeste 0 -- -- 49
2020-08-26 15:00:00 28.2 7 Norte 12 Nordeste 0 -- -- 50
2020-08-26 14:00:00 27.2 6 Norte 8 Norte 0 -- -- 50
2020-08-26 13:00:00 23.7 4 Nordeste 7 Nordeste 0 -- -- 62
2020-08-26 12:00:00 19.7 6 Nordeste 8 Nordeste 0 -- -- 75
2020-08-26 11:00:00 15.9 4 Nordeste 8 Este 0 -- -- 88
2020-08-26 10:00:00 13.5 5 Este 9 Este 0 -- -- 95
2020-08-26 09:00:00 12.7 5 Este 12 Sudeste 0 -- -- 97
2020-08-26 08:00:00 12.7 5 Este 12 Este 0 -- -- 97
2020-08-26 07:00:00 13.1 4 Sur 13 Nordeste 0 -- -- 96
2020-08-26 06:00:00 13.7 4 Este 8 Este 0 -- -- 95
2020-08-26 05:00:00 13.7 0 Calma 4 Sudeste 0 -- -- 95
2020-08-26 04:00:00 13.3 0 Calma 2 Oeste 0 -- -- 93
2020-08-26 03:00:00 13.7 0 Calma 6 Norte 0 -- -- 93
2020-08-26 02:00:00 14.7 0 Calma 9 Nordeste 0 -- -- 91
2020-08-26 01:00:00 15.8 2 Norte 12 Nordeste 0 -- -- 88
2020-08-26 00:00:00 16.6 6 Nordeste 12 Nordeste 0 -- -- 87
2020-08-25 23:00:00 17.8 3 Nordeste 18 Nordeste 0 -- -- 83
2020-08-25 22:00:00 18.9 4 Nordeste 21 Nordeste 0 -- -- 78
2020-08-25 21:00:00 20.1 11 Norte 34 Norte 0 -- -- 75
2020-08-25 20:00:00 21.8 18 Norte 40 Norte 0 -- -- 68
2020-08-25 19:00:00 24.7 23 Norte 36 Norte 0 -- -- 58
2020-08-25 18:00:00 27.6 14 Norte 31 Norte 0 -- -- 48
2020-08-25 17:00:00 28.9 4 Sudoeste 21 Sudoeste 0 -- -- 35
2020-08-25 16:00:00 28.7 7 Sur 22 Sur 0 -- -- 39
2020-08-25 15:00:00 27.9 4 Sudoeste 12 Sudoeste 0 -- -- 37
2020-08-25 14:00:00 27.5 6 Norte 10 Norte 0 -- -- 43
2020-08-25 13:00:00 25 5 Norte 8 Norte 0 -- -- 50
2020-08-25 12:00:00 20.9 5 Nordeste 8 Nordeste 0 -- -- 64
2020-08-25 11:00:00 16.9 4 Nordeste 8 Nordeste 0 -- -- 76
2020-08-25 10:00:00 14.2 3 Nordeste 8 Este 0 -- -- 86
2020-08-25 09:00:00 11.5 3 Nordeste 7 Este 0 -- -- 95
2020-08-25 08:00:00 10 0 Calma 4 Sur 0 -- -- 96
2020-08-25 07:00:00 9.8 2 Sur 4 Sur 0 -- -- 95
2020-08-25 06:00:00 9.6 0 Calma 3 Noroeste 0 -- -- 94
2020-08-25 05:00:00 10.1 0 Calma 3 Sur 0 -- -- 93
2020-08-25 04:00:00 10.6 0 Calma 3 Nordeste 0 -- -- 91
2020-08-25 03:00:00 11.3 0 Calma 3 Oeste 0 -- -- 90
2020-08-25 02:00:00 12.1 0 Calma 7 Norte 0 -- -- 88
2020-08-25 01:00:00 13 0 Calma 5 Noroeste 0 -- -- 85
2020-08-25 00:00:00 14.2 0 Calma 4 Norte 0 -- -- 81
2020-08-24 23:00:00 15.5 0 Calma 5 Sur 0 -- -- 76
2020-08-24 22:00:00 17.3 3 Sur 5 Sur 0 -- -- 71
2020-08-24 21:00:00 19.9 4 Sudoeste 9 Sudoeste 0 -- -- 58
2020-08-24 20:00:00 22.8 5 Oeste 10 Oeste 0 -- -- 50
2020-08-24 19:00:00 25.7 5 Oeste 8 Este 0 -- -- 45
2020-08-24 18:00:00 25.5 6 Nordeste 11 Nordeste 0 -- -- 48
2020-08-24 17:00:00 25.8 6 Nordeste 13 Norte 0 -- -- 51
2020-08-24 16:00:00 25.5 8 Sudeste 19 Sudeste 0 -- -- 50
2020-08-24 15:00:00 24.8 10 Sur 19 Sudeste 0 -- -- 53
2020-08-24 14:00:00 24 6 Nordeste 9 Nordeste 0 -- -- 50
2020-08-24 13:00:00 22.6 5 Norte 8 Norte 0 -- -- 57
2020-08-24 12:00:00 20 4 Nordeste 11 Nordeste 0 -- -- 57
2020-08-24 11:00:00 17.4 6 Norte 8 Norte 0 -- -- 73
2020-08-24 10:00:00 14.5 0 Calma 12 Este 0 -- -- 83
2020-08-24 09:00:00 12.4 9 Este 14 Este 0 -- -- 91
2020-08-24 08:00:00 10.4 3 Oeste 14 Este 0 -- -- 96
2020-08-24 07:00:00 11.1 2 Sudoeste 9 Nordeste 0 -- -- 95
2020-08-24 06:00:00 11.4 5 Este 14 Este 0 -- -- 94
2020-08-24 05:00:00 12 0 Calma 12 Este 0 -- -- 94
2020-08-24 04:00:00 12.7 4 Sudoeste 8 Sur 0 -- -- 93
2020-08-24 03:00:00 13.1 5 Sur 9 Sur 0 -- -- 92
2020-08-24 02:00:00 13.9 5 Sur 21 Norte 0 -- -- 90
2020-08-24 01:00:00 15.2 15 Norte 21 Norte 0 -- -- 90
2020-08-24 00:00:00 15.6 6 Noroeste 18 Norte 0 -- -- 84
2020-08-23 23:00:00 15.7 12 Norte 26 Norte 0 -- -- 85
2020-08-23 22:00:00 15.9 16 Norte 38 Norte 0 -- -- 85
2020-08-23 21:00:00 16.9 17 Norte 39 Nordeste 0 -- -- 81
2020-08-23 20:00:00 18.8 24 Norte 38 Norte 0 -- -- 75
2020-08-23 19:00:00 21.4 19 Norte 32 Norte 0 -- -- 64
2020-08-23 18:00:00 22.9 24 Norte 31 Norte 0 -- -- 57
2020-08-23 17:00:00 24.1 17 Norte 22 Norte 0 -- -- 49
2020-08-23 16:00:00 24.5 15 Norte 23 Norte 0 -- -- 44
2020-08-23 15:00:00 23.7 5 Nordeste 8 Sudeste 0 -- -- 43
2020-08-23 14:00:00 22.2 4 Este 7 Nordeste 0 -- -- 34
2020-08-23 13:00:00 21.6 5 Nordeste 8 Nordeste 0 -- -- 49
2020-08-23 12:00:00 18.9 4 Nordeste 6 Nordeste 0 -- -- 62
2020-08-23 11:00:00 15.9 3 Norte 8 Norte 0 -- -- 75
2020-08-23 10:00:00 12.4 3 Este 8 Este 0 -- -- 86
2020-08-23 09:00:00 11 4 Sudeste 12 Este 0 -- -- 91
2020-08-23 08:00:00 10.8 4 Este 12 Este 0 -- -- 94
2020-08-23 07:00:00 11 6 Nordeste 11 Nordeste 0 -- -- 94
2020-08-23 06:00:00 11.1 3 Sur 9 Este 0 -- -- 95
2020-08-23 05:00:00 11.1 2 Este 5 Sudeste 0 -- -- 94
2020-08-23 04:00:00 11.8 2 Sudeste 8 Sudeste 0 -- -- 90
2020-08-23 03:00:00 12.5 4 Sur 17 Este 0 -- -- 91
2020-08-23 02:00:00 13.4 5 Norte 17 Norte 0 -- -- 89
2020-08-23 01:00:00 14.6 14 Norte 27 Norte 0 -- -- 88
2020-08-23 00:00:00 14.7 19 Norte 27 Norte 0 -- -- 90
2020-08-22 23:00:00 14.4 8 Norte 31 Norte 0 -- -- 89
2020-08-22 22:00:00 14.8 20 Norte 33 Norte 0 -- -- 90
2020-08-22 21:00:00 15.3 16 Norte 41 Norte 0 -- -- 87
2020-08-22 20:00:00 17.8 22 Norte 39 Nordeste 0 -- -- 77
2020-08-22 19:00:00 20.7 25 Norte 33 Norte 0 -- -- 67
2020-08-22 18:00:00 23.7 16 Norte 23 Norte 0 -- -- 56
2020-08-22 17:00:00 23.8 7 Sur 16 Sur 0 -- -- 46
2020-08-22 16:00:00 24 9 Nordeste 18 Noroeste 0 -- -- 49
2020-08-22 15:00:00 23.4 5 Este 17 Este 0 -- -- 52
2020-08-22 14:00:00 23.2 6 Norte 12 Nordeste 0 -- -- 59
2020-08-22 13:00:00 21.8 8 Norte 10 Norte 0 -- -- 60
2020-08-22 12:00:00 19.1 6 Nordeste 10 Nordeste 0 -- -- 68
2020-08-22 11:00:00 15.5 2 Nordeste 10 Este 0 -- -- 81
2020-08-22 10:00:00 13.7 8 Este 14 Este 0 -- -- 88
2020-08-22 09:00:00 12.4 6 Este 13 Este 0 -- -- 92
2020-08-22 08:00:00 12.1 4 Este 12 Este 0 -- -- 92
2020-08-22 07:00:00 12 6 Este 13 Este 0 -- -- 91
2020-08-22 06:00:00 11.8 4 Este 13 Este 0 -- -- 94
2020-08-22 05:00:00 11.8 9 Este 15 Este 0 -- -- 92
2020-08-22 04:00:00 12.2 4 Este 10 Este 0 -- -- 93
2020-08-22 03:00:00 12.2 6 Este 11 Este 0 -- -- 93
2020-08-22 02:00:00 12.5 4 Este 10 Este 0 -- -- 92
2020-08-22 01:00:00 13 6 Este 14 Este 0 -- -- 92
2020-08-22 00:00:00 14.1 3 Norte 22 Nordeste 0 -- -- 89